createdAt,value
2019-03-22T00:00:21.970Z,5.53
2019-03-22T00:02:51.423Z,5.58
2019-03-22T00:05:21.013Z,5.95
2019-03-22T00:07:50.613Z,5.78
2019-03-22T00:10:26.090Z,5.70
2019-03-22T00:12:55.646Z,5.53
2019-03-22T00:15:26.281Z,6.00
2019-03-22T00:17:55.765Z,5.70
2019-03-22T00:20:26.363Z,5.33
2019-03-22T00:22:55.789Z,6.00
2019-03-22T00:25:25.377Z,4.78
2019-03-22T00:27:54.786Z,6.00
2019-03-22T00:30:25.319Z,6.00
2019-03-22T00:32:55.934Z,5.60
2019-03-22T00:35:25.529Z,5.72
2019-03-22T00:37:54.955Z,5.50
2019-03-22T00:40:25.452Z,5.35
2019-03-22T00:42:55.033Z,4.60
2019-03-22T00:45:26.456Z,5.60
2019-03-22T00:47:56.877Z,5.20
2019-03-22T00:50:26.351Z,6.05
2019-03-22T00:53:03.008Z,6.12
2019-03-22T00:55:34.568Z,5.67
2019-03-22T00:58:05.170Z,5.80
2019-03-22T01:00:36.672Z,5.70
2019-03-22T01:03:07.206Z,5.50
2019-03-22T01:05:37.898Z,5.83
2019-03-22T01:08:07.430Z,6.72
2019-03-22T01:10:43.691Z,5.53
2019-03-22T01:13:13.803Z,5.55
2019-03-22T01:15:45.518Z,5.08
2019-03-22T01:18:15.082Z,6.08
2019-03-22T01:20:45.534Z,5.83
2019-03-22T01:23:15.056Z,5.30
2019-03-22T01:25:44.697Z,5.75
2019-03-22T01:28:14.174Z,4.85
2019-03-22T01:30:44.650Z,6.17
2019-03-22T01:33:14.163Z,5.65
2019-03-22T01:35:43.589Z,5.62
2019-03-22T01:38:13.043Z,5.67
2019-03-22T01:40:48.589Z,6.20
2019-03-22T01:43:20.237Z,6.65
2019-03-22T01:45:49.753Z,6.45
2019-03-22T01:48:20.240Z,6.03
2019-03-22T01:50:50.033Z,6.03
2019-03-22T01:53:19.619Z,7.25
2019-03-22T01:55:49.031Z,6.20
2019-03-22T01:58:20.590Z,6.53
2019-03-22T02:00:51.152Z,6.87
2019-03-22T02:03:20.717Z,6.30
2019-03-22T02:05:51.309Z,6.00
2019-03-22T02:08:21.017Z,5.85
2019-03-22T02:10:50.581Z,5.90
2019-03-22T02:13:20.936Z,6.58
2019-03-22T02:15:51.786Z,6.67
2019-03-22T02:18:21.230Z,6.28
2019-03-22T02:20:51.822Z,6.17
2019-03-22T02:23:21.323Z,6.70
2019-03-22T02:25:52.746Z,6.55
2019-03-22T02:28:23.221Z,6.85
2019-03-22T02:30:52.733Z,6.62
2019-03-22T02:33:22.166Z,6.50
2019-03-22T02:35:51.775Z,6.53
2019-03-22T02:38:21.150Z,6.35
2019-03-22T02:40:56.605Z,6.03
2019-03-22T02:43:27.041Z,6.25
2019-03-22T02:45:56.617Z,6.25
2019-03-22T02:48:26.041Z,6.45
2019-03-22T02:51:01.559Z,6.30
2019-03-22T02:53:30.998Z,6.78
2019-03-22T02:56:00.673Z,6.87
2019-03-22T02:58:30.265Z,6.20
2019-03-22T03:00:59.865Z,6.67
2019-03-22T03:03:31.357Z,6.87
2019-03-22T03:06:00.921Z,6.67
2019-03-22T03:08:30.431Z,6.78
2019-03-22T03:10:59.944Z,7.45
2019-03-22T03:13:29.463Z,6.92
2019-03-22T03:16:04.889Z,6.78
2019-03-22T03:18:34.495Z,6.00
2019-03-22T03:21:05.115Z,7.05
2019-03-22T03:23:34.647Z,6.40
2019-03-22T03:26:04.211Z,7.10
2019-03-22T03:28:37.248Z,6.50
2019-03-22T03:31:05.112Z,7.33
2019-03-22T03:33:36.674Z,6.90
2019-03-22T03:36:07.278Z,7.17
2019-03-22T03:38:36.806Z,7.30
2019-03-22T03:41:06.417Z,6.65
2019-03-22T03:43:35.990Z,6.87
2019-03-22T03:46:05.517Z,7.12
2019-03-22T03:48:37.072Z,6.28
2019-03-22T03:51:13.501Z,6.33
2019-03-22T03:53:47.025Z,6.60
2019-03-22T03:56:16.696Z,7.42
2019-03-22T03:58:52.574Z,5.78
2019-03-22T04:01:17.456Z,7.47
2019-03-22T04:03:46.991Z,6.40
2019-03-22T04:06:18.465Z,5.87
2019-03-22T04:08:47.974Z,6.05
2019-03-22T04:11:17.398Z,6.37
2019-03-22T04:13:46.981Z,7.30
2019-03-22T04:16:16.397Z,6.47
2019-03-22T04:18:45.897Z,7.03
2019-03-22T04:21:16.343Z,6.20
2019-03-22T04:23:45.914Z,6.92
2019-03-22T04:26:15.367Z,6.65
2019-03-22T04:28:44.922Z,7.78
2019-03-22T04:31:14.419Z,7.40
2019-03-22T04:33:44.845Z,7.37
2019-03-22T04:36:14.352Z,7.67
2019-03-22T04:38:43.852Z,6.70
2019-03-22T04:41:14.320Z,6.62
2019-03-22T04:43:44.799Z,7.60
2019-03-22T04:46:15.615Z,6.83
2019-03-22T04:48:46.805Z,6.35
2019-03-22T04:51:16.748Z,7.78
2019-03-22T04:53:55.089Z,6.95
2019-03-22T04:56:26.098Z,6.60
2019-03-22T04:58:58.301Z,6.80
2019-03-22T05:01:29.434Z,6.75
2019-03-22T05:04:00.048Z,6.40
2019-03-22T05:06:30.388Z,6.95
2019-03-22T05:09:01.690Z,6.80
2019-03-22T05:11:31.697Z,6.80
2019-03-22T05:14:03.245Z,6.40
2019-03-22T05:16:36.146Z,6.90
2019-03-22T05:19:08.842Z,6.75
2019-03-22T05:21:39.265Z,6.95
2019-03-22T05:24:10.078Z,6.72
2019-03-22T05:26:40.785Z,8.30
2019-03-22T05:29:12.478Z,6.60
2019-03-22T05:32:01.357Z,8.23
2019-03-22T05:34:30.893Z,6.60
2019-03-22T05:37:00.370Z,6.42
2019-03-22T05:39:29.744Z,6.80
2019-03-22T05:41:59.176Z,6.53
2019-03-22T05:44:28.625Z,7.60
2019-03-22T05:46:58.222Z,6.90
2019-03-22T05:49:27.606Z,6.62
2019-03-22T05:51:57.064Z,7.55
2019-03-22T05:54:26.463Z,7.42
2019-03-22T05:56:56.888Z,7.35
2019-03-22T05:59:26.277Z,5.90
2019-03-22T06:01:55.813Z,6.83
2019-03-22T06:04:25.277Z,7.97
2019-03-22T06:06:54.701Z,8.68
2019-03-22T06:09:24.218Z,7.67
2019-03-22T06:11:53.743Z,6.10
2019-03-22T06:14:23.285Z,7.05
2019-03-22T06:16:52.665Z,7.87
2019-03-22T06:19:47.154Z,7.25
2019-03-22T06:22:17.757Z,7.47
2019-03-22T06:24:47.183Z,8.98
2019-03-22T06:27:16.702Z,7.87
2019-03-22T06:29:54.102Z,8.50
2019-03-22T06:32:21.694Z,8.03
2019-03-22T06:34:50.476Z,8.68
2019-03-22T06:37:20.011Z,8.75
2019-03-22T06:39:49.375Z,7.90
2019-03-22T06:42:24.821Z,7.35
2019-03-22T06:44:56.593Z,7.45
2019-03-22T06:47:30.983Z,8.60
2019-03-22T06:50:14.290Z,7.28
2019-03-22T06:52:42.743Z,7.85
2019-03-22T06:55:12.377Z,7.37
2019-03-22T06:57:42.002Z,7.97
2019-03-22T07:00:11.611Z,7.67
2019-03-22T07:02:41.109Z,8.00
2019-03-22T07:05:13.425Z,9.18
2019-03-22T07:07:41.811Z,10.80
2019-03-22T07:10:12.552Z,8.18
2019-03-22T07:12:42.070Z,9.03
2019-03-22T07:15:11.709Z,8.63
2019-03-22T07:17:41.242Z,9.13
2019-03-22T07:20:10.797Z,9.68
2019-03-22T07:22:40.156Z,9.33
2019-03-22T07:25:10.641Z,10.08
2019-03-22T07:27:40.236Z,9.08
2019-03-22T07:30:18.607Z,9.25
2019-03-22T07:32:41.172Z,10.15
2019-03-22T07:35:10.714Z,9.95
2019-03-22T07:37:40.185Z,9.60
2019-03-22T07:40:09.854Z,10.43
2019-03-22T07:42:39.405Z,10.05
2019-03-22T07:45:09.096Z,9.55
2019-03-22T07:47:38.756Z,10.58
2019-03-22T07:50:08.642Z,10.30
2019-03-22T07:52:38.189Z,9.33
2019-03-22T07:55:08.633Z,8.35
2019-03-22T07:57:38.243Z,9.55
2019-03-22T08:00:08.081Z,9.80
2019-03-22T08:02:37.569Z,9.80
2019-03-22T08:05:07.198Z,8.80
2019-03-22T08:07:37.602Z,8.85
2019-03-22T08:10:08.326Z,10.10
2019-03-22T08:12:37.910Z,8.90
2019-03-22T08:15:08.566Z,9.40
2019-03-22T08:17:38.369Z,10.28
2019-03-22T08:20:08.682Z,11.03
2019-03-22T08:22:38.254Z,11.40
2019-03-22T08:25:07.747Z,10.28
2019-03-22T08:27:37.250Z,11.15
2019-03-22T08:30:06.982Z,10.53
2019-03-22T08:32:36.548Z,9.50
2019-03-22T08:35:06.166Z,10.43
2019-03-22T08:37:35.653Z,10.35
2019-03-22T08:40:05.549Z,10.78
2019-03-22T08:42:37.115Z,10.38
2019-03-22T08:45:25.529Z,11.00
2019-03-22T08:47:55.030Z,10.23
2019-03-22T08:50:24.531Z,10.58
2019-03-22T08:52:56.690Z,9.83
2019-03-22T08:55:26.191Z,9.45
2019-03-22T08:57:55.619Z,10.78
2019-03-22T09:00:38.269Z,10.20
2019-03-22T09:02:56.383Z,10.93
2019-03-22T09:05:27.050Z,12.03
2019-03-22T09:07:56.645Z,12.13
2019-03-22T09:10:26.060Z,10.48
2019-03-22T09:12:55.597Z,11.95
2019-03-22T09:15:25.181Z,11.30
2019-03-22T09:17:54.631Z,10.37
2019-03-22T09:20:24.047Z,12.87
2019-03-22T09:22:53.607Z,10.50
2019-03-22T09:25:23.082Z,10.83
2019-03-22T09:27:52.538Z,12.15
2019-03-22T09:30:22.109Z,10.98
2019-03-22T09:32:51.644Z,10.47
2019-03-22T09:35:21.156Z,11.22
2019-03-22T09:37:50.637Z,12.10
2019-03-22T09:40:20.247Z,11.10
2019-03-22T09:42:49.741Z,11.37
2019-03-22T09:45:19.195Z,10.90
2019-03-22T09:47:48.588Z,12.10
2019-03-22T09:50:18.455Z,12.03
2019-03-22T09:52:47.933Z,10.93
2019-03-22T09:55:17.594Z,11.90
2019-03-22T09:57:49.316Z,11.20
2019-03-22T10:00:37.225Z,11.67
2019-03-22T10:03:08.408Z,12.17
2019-03-22T10:05:37.857Z,10.97
2019-03-22T10:08:07.396Z,11.08
2019-03-22T10:10:36.901Z,12.30
2019-03-22T10:13:06.391Z,12.40
2019-03-22T10:15:35.882Z,12.30
2019-03-22T10:18:05.919Z,12.47
2019-03-22T10:20:35.415Z,12.87
2019-03-22T10:23:04.954Z,12.67
2019-03-22T10:25:34.401Z,11.60
2019-03-22T10:28:03.894Z,12.30
2019-03-22T10:30:33.374Z,13.07
2019-03-22T10:33:03.877Z,12.20
2019-03-22T10:35:33.269Z,12.83
2019-03-22T10:38:04.747Z,12.33
2019-03-22T10:40:33.985Z,12.87
2019-03-22T10:43:03.462Z,14.03
2019-03-22T10:45:33.050Z,14.90
2019-03-22T10:48:02.531Z,12.50
2019-03-22T10:50:31.988Z,13.17
2019-03-22T10:53:01.527Z,13.57
2019-03-22T10:55:30.997Z,13.57
2019-03-22T10:58:00.529Z,12.80
2019-03-22T11:00:30.033Z,13.73
2019-03-22T11:03:00.509Z,13.93
2019-03-22T11:05:30.046Z,12.50
2019-03-22T11:07:59.458Z,14.57
2019-03-22T11:10:29.030Z,13.73
2019-03-22T11:12:58.579Z,13.50
2019-03-22T11:15:28.125Z,13.23
2019-03-22T11:17:57.608Z,12.40
2019-03-22T11:20:27.160Z,13.70
2019-03-22T11:22:56.715Z,13.93
2019-03-22T11:25:26.182Z,13.47
2019-03-22T11:27:55.674Z,13.30
2019-03-22T11:30:25.227Z,14.07
2019-03-22T11:32:54.726Z,13.40
2019-03-22T11:35:24.164Z,14.47
2019-03-22T11:37:53.779Z,12.83
2019-03-22T11:40:23.397Z,13.77
2019-03-22T11:42:53.069Z,13.63
2019-03-22T11:45:24.630Z,14.10
2019-03-22T11:47:54.290Z,13.17
2019-03-22T11:50:23.853Z,12.67
2019-03-22T11:52:53.402Z,13.20
2019-03-22T11:55:23.037Z,12.60
2019-03-22T11:57:52.581Z,13.57
2019-03-22T12:00:22.642Z,12.80
2019-03-22T12:02:52.205Z,12.90
2019-03-22T12:05:21.968Z,14.50
2019-03-22T12:07:51.506Z,12.90
2019-03-22T12:10:22.410Z,13.60
2019-03-22T12:12:52.031Z,12.03
2019-03-22T12:15:23.243Z,12.20
2019-03-22T12:17:54.801Z,12.63
2019-03-22T12:20:26.985Z,11.90
2019-03-22T12:22:56.458Z,14.10
2019-03-22T12:25:26.358Z,12.80
2019-03-22T12:27:55.901Z,12.50
2019-03-22T12:30:25.434Z,11.93
2019-03-22T12:32:55.002Z,12.80
2019-03-22T12:35:24.506Z,13.53
2019-03-22T12:37:53.893Z,13.30
2019-03-22T12:40:24.937Z,13.90
2019-03-22T12:42:56.510Z,13.30
2019-03-22T12:45:26.053Z,13.90
2019-03-22T12:47:55.510Z,13.07
2019-03-22T12:50:25.293Z,13.30
2019-03-22T12:52:54.758Z,13.53
2019-03-22T12:55:24.353Z,14.03
2019-03-22T12:57:53.902Z,13.90
2019-03-22T13:00:23.578Z,14.70
2019-03-22T13:02:53.533Z,14.07
2019-03-22T13:05:24.504Z,15.47
2019-03-22T13:07:55.280Z,13.77
2019-03-22T13:10:25.486Z,13.17
2019-03-22T13:12:56.113Z,14.80
2019-03-22T13:15:25.656Z,13.70
2019-03-22T13:18:14.004Z,13.47
2019-03-22T13:20:44.590Z,13.67
2019-03-22T13:23:15.155Z,13.33
2019-03-22T13:25:44.650Z,13.70
2019-03-22T13:28:14.165Z,13.10
2019-03-22T13:30:43.593Z,13.00
2019-03-22T13:33:15.061Z,13.67
2019-03-22T13:35:44.634Z,13.53
2019-03-22T13:38:14.168Z,13.53
2019-03-22T13:40:43.715Z,14.17
2019-03-22T13:43:13.181Z,14.10
2019-03-22T13:45:42.645Z,13.97
2019-03-22T13:48:12.130Z,12.80
2019-03-22T13:50:41.592Z,14.17
2019-03-22T13:53:12.164Z,12.80
2019-03-22T13:55:41.715Z,12.40
2019-03-22T13:58:11.101Z,12.67
2019-03-22T14:00:40.639Z,11.80
2019-03-22T14:03:10.130Z,11.43
2019-03-22T14:05:39.540Z,12.43
2019-03-22T14:08:09.085Z,11.37
2019-03-22T14:10:38.702Z,11.27
2019-03-22T14:13:10.051Z,12.10
2019-03-22T14:15:39.465Z,12.23
2019-03-22T14:18:09.970Z,11.50
2019-03-22T14:20:39.555Z,12.80
2019-03-22T14:23:09.082Z,10.70
2019-03-22T14:25:38.566Z,12.17
2019-03-22T14:28:08.136Z,11.43
2019-03-22T14:30:37.529Z,11.00
2019-03-22T14:33:13.410Z,11.97
2019-03-22T14:35:38.212Z,10.57
2019-03-22T14:38:07.715Z,10.27
2019-03-22T14:40:37.104Z,10.00
2019-03-22T14:43:06.682Z,11.33
2019-03-22T14:45:36.165Z,10.80
2019-03-22T14:48:05.736Z,11.47
2019-03-22T14:50:35.148Z,11.17
2019-03-22T14:53:04.657Z,12.20
2019-03-22T14:55:34.058Z,11.33
2019-03-22T14:58:03.563Z,10.57
2019-03-22T15:00:33.076Z,10.93
2019-03-22T15:03:04.291Z,12.80
2019-03-22T15:05:33.782Z,11.60
2019-03-22T15:08:03.276Z,10.13
2019-03-22T15:10:32.826Z,10.57
2019-03-22T15:13:02.499Z,11.03
2019-03-22T15:15:53.251Z,9.73
2019-03-22T15:18:31.753Z,10.33
2019-03-22T15:21:23.530Z,12.27
2019-03-22T15:24:07.787Z,10.33
2019-03-22T15:27:05.422Z,11.70
2019-03-22T15:29:56.688Z,10.60
2019-03-22T15:32:52.079Z,9.87
2019-03-22T15:35:42.715Z,10.37
2019-03-22T15:38:25.606Z,11.43
2019-03-22T15:40:55.187Z,11.23
2019-03-22T15:43:24.678Z,11.13
2019-03-22T15:45:54.451Z,11.70
2019-03-22T15:48:23.871Z,10.97
2019-03-22T15:50:53.447Z,11.40
2019-03-22T15:53:22.940Z,12.20
2019-03-22T15:55:52.625Z,10.63
2019-03-22T15:58:22.207Z,11.80
2019-03-22T16:00:51.825Z,12.00
2019-03-22T16:03:21.290Z,10.63
2019-03-22T16:05:51.932Z,11.70
2019-03-22T16:08:21.621Z,12.20
2019-03-22T16:10:51.180Z,12.23
2019-03-22T16:13:20.693Z,12.37
2019-03-22T16:15:50.238Z,12.77
2019-03-22T16:18:20.443Z,11.53
2019-03-22T16:20:56.113Z,12.60
2019-03-22T16:23:21.239Z,13.30
2019-03-22T16:25:53.965Z,12.93
2019-03-22T16:28:23.534Z,11.73
2019-03-22T16:30:52.999Z,12.37
2019-03-22T16:33:22.741Z,11.60
2019-03-22T16:35:59.239Z,11.73
2019-03-22T16:38:45.949Z,12.67
2019-03-22T16:41:15.409Z,12.37
2019-03-22T16:43:44.973Z,12.00
2019-03-22T16:46:14.597Z,13.40
2019-03-22T16:48:44.189Z,12.87
2019-03-22T16:51:13.761Z,13.20
2019-03-22T16:53:46.645Z,13.03
2019-03-22T16:56:17.205Z,13.00
2019-03-22T16:58:46.769Z,13.53
2019-03-22T17:01:16.458Z,13.30
2019-03-22T17:03:46.088Z,13.77
2019-03-22T17:06:15.677Z,13.43
2019-03-22T17:08:45.212Z,13.33
2019-03-22T17:11:14.720Z,13.00
2019-03-22T17:13:44.253Z,15.17
2019-03-22T17:16:13.826Z,13.73
2019-03-22T17:18:46.322Z,14.20
2019-03-22T17:21:15.793Z,13.17
2019-03-22T17:23:45.353Z,15.33
2019-03-22T17:26:14.921Z,13.80
2019-03-22T17:28:44.389Z,13.93
2019-03-22T17:31:25.330Z,14.73
2019-03-22T17:33:54.994Z,14.57
2019-03-22T17:36:25.622Z,15.40
2019-03-22T17:38:58.180Z,14.23
2019-03-22T17:41:27.844Z,16.80
2019-03-22T17:43:57.337Z,15.40
2019-03-22T17:46:26.930Z,13.90
2019-03-22T17:48:56.546Z,15.03
2019-03-22T17:51:27.647Z,14.50
2019-03-22T17:54:00.220Z,14.03
2019-03-22T17:56:29.930Z,14.50
2019-03-22T17:58:59.573Z,15.20
2019-03-22T18:01:29.128Z,13.47
2019-03-22T18:04:00.845Z,15.50
2019-03-22T18:06:29.987Z,15.80
2019-03-22T18:08:59.487Z,16.02
2019-03-22T18:11:31.834Z,15.50
2019-03-22T18:14:02.539Z,14.73
2019-03-22T18:16:32.106Z,15.40
2019-03-22T18:19:04.554Z,16.67
2019-03-22T18:21:34.145Z,20.80
2019-03-22T18:24:03.834Z,17.15
2019-03-22T18:26:33.374Z,17.30
2019-03-22T18:29:02.967Z,16.32
2019-03-22T18:31:32.543Z,16.37
2019-03-22T18:34:02.030Z,16.00
2019-03-22T18:36:31.570Z,24.67
2019-03-22T18:39:01.420Z,27.50
2019-03-22T18:41:31.092Z,19.00
2019-03-22T18:44:00.624Z,21.10
2019-03-22T18:46:30.100Z,22.03
2019-03-22T18:48:59.866Z,22.47
2019-03-22T18:51:29.414Z,21.30
2019-03-22T18:53:59.029Z,19.37
2019-03-22T18:56:28.559Z,19.32
2019-03-22T18:58:57.999Z,19.87
2019-03-22T19:01:27.622Z,18.98
2019-03-22T19:03:57.142Z,17.70
2019-03-22T19:06:26.729Z,18.82
2019-03-22T19:08:56.291Z,18.67
2019-03-22T19:11:25.850Z,18.30
2019-03-22T19:14:00.323Z,18.77
2019-03-22T19:16:29.722Z,19.02
2019-03-22T19:19:00.883Z,18.07
2019-03-22T19:21:30.442Z,19.40
2019-03-22T19:23:59.953Z,17.85
2019-03-22T19:28:49.548Z,19.45
2019-03-22T19:31:20.093Z,17.42
2019-03-22T19:33:49.677Z,18.05
2019-03-22T19:36:19.452Z,17.10
2019-03-22T19:38:48.967Z,18.32
2019-03-22T19:41:18.464Z,17.75
2019-03-22T19:43:48.270Z,17.10
2019-03-22T19:46:17.781Z,17.60
2019-03-22T19:48:47.311Z,17.30
2019-03-22T19:51:16.860Z,18.77
2019-03-22T19:53:46.372Z,19.98
2019-03-22T19:56:15.947Z,19.23
2019-03-22T19:58:45.436Z,18.07
2019-03-22T20:01:16.485Z,18.17
2019-03-22T20:03:47.016Z,18.17
2019-03-22T20:06:16.533Z,17.15
2019-03-22T20:08:48.474Z,18.00
2019-03-22T20:11:18.091Z,17.77
2019-03-22T20:13:47.715Z,17.80
2019-03-22T20:16:17.317Z,16.97
2019-03-22T20:18:46.994Z,17.92
2019-03-22T20:21:16.668Z,18.02
2019-03-22T20:23:53.503Z,17.73
2019-03-22T20:26:17.374Z,18.25
2019-03-22T20:28:46.898Z,17.90
2019-03-22T20:31:16.450Z,16.75
2019-03-22T20:33:46.076Z,16.80
2019-03-22T20:36:15.638Z,18.10
2019-03-22T20:38:45.277Z,17.70
2019-03-22T20:41:15.966Z,17.60
2019-03-22T20:43:45.482Z,18.17
2019-03-22T20:46:15.182Z,18.60
2019-03-22T20:48:44.683Z,18.70
2019-03-22T20:51:14.087Z,18.70
2019-03-22T20:53:43.559Z,18.50
2019-03-22T20:56:13.200Z,18.85
2019-03-22T20:58:42.764Z,17.97
2019-03-22T21:01:12.393Z,19.45
2019-03-22T21:03:42.194Z,17.37
2019-03-22T21:06:11.642Z,17.12
2019-03-22T21:08:41.303Z,19.27
2019-03-22T21:11:11.002Z,20.15
2019-03-22T21:13:40.836Z,17.70
2019-03-22T21:16:10.615Z,17.90
2019-03-22T21:18:40.422Z,18.07
2019-03-22T21:21:10.042Z,18.45
2019-03-22T21:23:39.554Z,17.80
2019-03-22T21:26:09.187Z,18.98
2019-03-22T21:28:38.660Z,18.70
2019-03-22T21:31:08.406Z,17.37
2019-03-22T21:33:37.942Z,16.70
2019-03-22T21:36:07.570Z,17.57
2019-03-22T21:38:37.105Z,17.57
2019-03-22T21:41:06.679Z,17.40
2019-03-22T21:43:36.185Z,17.98
2019-03-22T21:46:05.713Z,17.17
2019-03-22T21:48:35.290Z,18.48
2019-03-22T21:51:04.956Z,17.48
2019-03-22T21:53:34.369Z,18.05
2019-03-22T21:56:04.026Z,18.05
2019-03-22T21:58:33.493Z,15.43
2019-03-22T22:01:03.137Z,17.75
2019-03-22T22:03:32.666Z,16.87
2019-03-22T22:06:02.245Z,17.23
2019-03-22T22:08:31.681Z,16.60
2019-03-22T22:11:01.191Z,16.52
2019-03-22T22:13:30.832Z,16.90
2019-03-22T22:16:00.407Z,17.57
2019-03-22T22:18:30.086Z,15.78
2019-03-22T22:20:59.619Z,16.82
2019-03-22T22:23:29.208Z,16.57
2019-03-22T22:25:58.892Z,15.90
2019-03-22T22:28:28.381Z,16.70
2019-03-22T22:30:57.839Z,16.70
2019-03-22T22:33:27.270Z,19.50
2019-03-22T22:35:58.893Z,16.20
2019-03-22T22:38:28.086Z,17.73
2019-03-22T22:40:57.668Z,16.62
2019-03-22T22:43:27.191Z,16.27
2019-03-22T22:45:56.730Z,16.82
2019-03-22T22:48:26.381Z,16.75
2019-03-22T22:50:55.998Z,16.07
2019-03-22T22:53:25.494Z,17.27
2019-03-22T22:55:54.964Z,15.25
2019-03-22T22:58:24.523Z,16.75
2019-03-22T23:00:54.118Z,16.48
2019-03-22T23:03:23.623Z,16.32
2019-03-22T23:05:53.228Z,16.75
2019-03-22T23:08:22.742Z,16.93
2019-03-22T23:10:52.292Z,15.48
2019-03-22T23:13:21.797Z,17.60
2019-03-22T23:15:51.378Z,16.23
2019-03-22T23:18:20.869Z,16.00
2019-03-22T23:20:50.327Z,15.40
2019-03-22T23:23:19.793Z,16.10
2019-03-22T23:25:49.231Z,16.70
2019-03-22T23:28:18.723Z,16.67
2019-03-22T23:30:48.234Z,16.73
2019-03-22T23:33:17.782Z,16.97
2019-03-22T23:35:47.339Z,17.70
2019-03-22T23:38:16.898Z,17.23
2019-03-22T23:40:46.429Z,16.57
2019-03-22T23:43:15.933Z,18.23
2019-03-22T23:45:45.433Z,18.05
2019-03-22T23:48:14.922Z,16.85
2019-03-22T23:50:44.500Z,16.52
2019-03-22T23:53:14.057Z,17.15
2019-03-22T23:55:43.479Z,18.42
2019-03-22T23:58:16.722Z,17.60
